EDT,Max TemperatureF,Mean TemperatureF,Min TemperatureF,Max Dew PointF,MeanDew PointF,Min DewpointF,Max Humidity, Mean Humidity, Min Humidity, Max Sea Level PressureIn, Mean Sea Level PressureIn, Min Sea Level PressureIn, Max VisibilityMiles, Mean VisibilityMiles, Min VisibilityMiles, Max Wind SpeedMPH, Mean Wind SpeedMPH, Max Gust SpeedMPH,PrecipitationIn, CloudCover, Events, WindDirDegrees
2012-9-1,89,80,71,73,72,68,100,80,52,30.19,30.14,30.09,10,10,10,8,2,,0.00,1,,225
2012-9-2,91,81,71,75,71,68,100,81,49,30.11,30.05,29.96,10,10,5,10,2,,0.08,1,Rain,216
2012-9-3,86,78,69,73,71,68,100,89,62,30.07,30.04,30.01,10,10,2,12,2,16,0.16,2,Rain,172
2012-9-4,80,74,69,73,71,70,100,91,74,30.06,30.02,29.97,10,7,1,13,4,17,0.44,5,Rain,178
2012-9-5,82,76,71,72,71,70,100,86,66,30.01,29.96,29.91,10,8,0,14,4,18,0.00,4,Fog,214
2012-9-6,82,76,71,73,71,70,100,88,70,30.01,29.96,29.93,10,10,2,12,3,17,0.72,3,Rain,214
2012-9-7,86,77,68,70,68,64,100,83,48,30.03,29.97,29.90,10,8,0,6,1,,0.00,3,Fog,105
2012-9-8,87,76,66,72,69,64,100,88,52,29.91,29.84,29.74,10,8,2,14,3,24,0.23,3,Rain,212
2012-9-9,77,67,57,64,56,48,100,74,38,30.05,29.95,29.89,10,10,10,12,2,,0.02,3,Rain,5
2012-9-10,75,63,51,61,55,50,100,78,44,30.21,30.12,30.05,10,10,7,7,1,,0.00,1,,14
2012-9-11,75,63,51,61,53,50,100,73,44,30.35,30.29,30.21,10,9,5,7,1,,0.00,1,,187
2012-9-12,77,65,53,59,54,52,100,71,41,30.41,30.35,30.31,10,10,10,7,1,,0.00,1,,82
2012-9-13,77,64,51,59,54,50,100,75,39,30.40,30.34,30.29,10,10,10,7,1,,0.00,0,,54
2012-9-14,77,66,55,64,59,54,100,83,54,30.32,30.25,30.19,10,10,10,5,0,,0.00,1,,33
2012-9-15,80,68,57,64,60,57,100,77,51,30.24,30.18,30.14,10,10,4,8,1,,0.00,1,,64
2012-9-16,66,63,60,63,61,57,100,93,82,30.21,30.16,30.12,10,10,5,6,3,,0.05,6,Rain,98
2012-9-17,77,68,60,68,64,59,100,90,65,30.15,30.08,29.96,10,9,1,8,1,,0.00,5,Rain,171
2012-9-18,75,70,64,72,69,64,100,91,83,29.95,29.82,29.76,10,10,1,20,9,28,0.93,5,Rain,196
2012-9-19,69,64,59,64,56,52,100,75,53,30.17,30.07,29.89,10,9,0,15,3,20,0.00,4,Fog,24
2012-9-20,73,62,50,61,54,50,100,79,50,30.21,30.16,30.09,10,10,10,5,0,,0.00,0,,235
2012-9-21,78,66,53,63,58,54,100,79,47,30.14,30.09,30.03,10,10,10,10,2,,0.00,1,,192
2012-9-22,82,73,64,64,62,59,100,72,45,30.04,30.00,29.93,10,10,7,13,7,21,0.08,1,Rain,207
2012-9-23,71,61,50,64,50,34,100,69,25,30.18,30.12,30.03,10,9,5,10,2,17,0.00,2,,357
2012-9-24,68,56,44,52,44,37,100,69,33,30.27,30.22,30.18,10,10,10,10,1,,0.00,0,,7
2012-9-25,73,58,44,61,51,43,100,76,47,30.28,30.24,30.19,10,10,10,10,2,,0.00,0,,194
2012-9-26,78,66,55,64,58,54,94,77,51,30.27,30.23,30.19,10,10,10,8,2,,0.00,0,,200
2012-9-27,80,66,53,63,57,50,100,76,34,30.25,30.19,30.13,10,10,10,7,1,,0.00,0,,237
2012-9-28,80,68,57,66,60,55,100,84,48,30.15,30.10,30.03,10,9,1,9,1,22,0.51,1,Rain,237
2012-9-29,66,63,60,64,62,61,100,99,94,30.05,30.00,29.93,10,7,1,8,1,,0.72,6,Rain,12
2012-9-30,69,62,55,61,57,52,100,86,53,29.97,29.94,29.89,10,8,0,8,2,,0.01,3,Fog,15